createdAt,value
2022-12-23T00:02:09.022Z,8.44
2022-12-23T00:04:56.407Z,8.43
2022-12-23T00:07:45.081Z,8.47
2022-12-23T00:10:33.010Z,8.46
2022-12-23T00:13:38.064Z,8.45
2022-12-23T00:16:25.495Z,8.50
2022-12-23T00:19:14.451Z,8.54
2022-12-23T00:22:01.898Z,8.49
2022-12-23T00:24:50.087Z,8.59
2022-12-23T00:27:37.909Z,8.60
2022-12-23T00:30:25.639Z,8.61
2022-12-23T00:33:13.150Z,8.57
2022-12-23T00:36:02.753Z,8.67
2022-12-23T00:39:08.291Z,8.64
2022-12-23T00:42:13.102Z,8.58
2022-12-23T00:45:16.092Z,8.55
2022-12-23T00:48:20.821Z,8.71
2022-12-23T00:51:09.783Z,8.63
2022-12-23T00:53:57.325Z,8.72
2022-12-23T00:56:44.983Z,8.62
2022-12-23T00:59:32.546Z,8.67
2022-12-23T01:02:37.606Z,8.67
2022-12-23T01:05:40.692Z,8.67
2022-12-23T01:08:30.472Z,8.59
2022-12-23T01:11:18.098Z,8.74
2022-12-23T01:14:05.764Z,8.74
2022-12-23T01:16:53.427Z,8.65
2022-12-23T01:19:41.377Z,8.73
2022-12-23T01:22:28.982Z,8.70
2022-12-23T01:25:18.251Z,8.71
2022-12-23T01:28:05.951Z,8.74
2022-12-23T01:30:53.738Z,8.68
2022-12-23T01:33:41.268Z,8.73
2022-12-23T01:36:29.072Z,8.73
2022-12-23T01:39:16.714Z,8.74
2022-12-23T01:42:25.377Z,8.75
2022-12-23T01:45:18.471Z,8.77
2022-12-23T01:48:10.475Z,8.83
2022-12-23T01:51:04.354Z,8.90
2022-12-23T01:53:56.203Z,8.91
2022-12-23T01:56:43.662Z,8.88
2022-12-23T01:59:50.312Z,8.92
2022-12-23T02:02:57.495Z,8.81
2022-12-23T02:05:47.113Z,8.89
2022-12-23T02:08:52.302Z,8.92
2022-12-23T02:11:58.304Z,8.91
2022-12-23T02:15:19.699Z,8.89
2022-12-23T02:18:35.697Z,8.80
2022-12-23T02:21:39.862Z,8.89
2022-12-23T02:25:18.398Z,8.92
2022-12-23T02:28:30.118Z,8.99
2022-12-23T02:31:26.643Z,9.00
2022-12-23T02:34:20.710Z,8.93
2022-12-23T02:37:16.827Z,8.85
2022-12-23T02:40:11.557Z,8.86
2022-12-23T02:43:05.403Z,8.87
2022-12-23T02:46:00.202Z,8.90
2022-12-23T02:48:55.764Z,8.92
2022-12-23T02:51:47.179Z,8.80
2022-12-23T02:54:40.380Z,8.91
2022-12-23T02:57:33.848Z,8.92
2022-12-23T03:00:22.650Z,8.88
2022-12-23T03:03:10.362Z,8.90
2022-12-23T03:05:59.726Z,8.95
2022-12-23T03:08:47.663Z,8.90
2022-12-23T03:11:46.277Z,8.90
2022-12-23T03:14:58.364Z,8.84
2022-12-23T03:17:59.543Z,8.88
2022-12-23T03:20:55.093Z,8.90
2022-12-23T03:23:51.980Z,8.97
2022-12-23T03:26:50.991Z,8.91
2022-12-23T03:29:44.207Z,8.94
2022-12-23T03:32:38.484Z,9.02
2022-12-23T03:35:32.543Z,8.95
2022-12-23T03:38:20.569Z,8.96
2022-12-23T03:41:15.403Z,8.91
2022-12-23T03:44:08.266Z,9.02
2022-12-23T03:47:00.521Z,9.02
2022-12-23T03:49:53.666Z,8.99
2022-12-23T03:52:47.329Z,8.97
2022-12-23T03:55:38.096Z,8.94
2022-12-23T03:58:36.770Z,9.07
2022-12-23T04:01:35.289Z,9.14
2022-12-23T04:04:27.443Z,9.06
2022-12-23T04:07:18.997Z,9.00
2022-12-23T04:10:09.401Z,9.04
2022-12-23T04:12:57.186Z,9.11
2022-12-23T04:15:46.517Z,9.01
2022-12-23T04:18:34.281Z,9.04
2022-12-23T04:21:21.469Z,9.10
2022-12-23T04:24:09.153Z,9.03
2022-12-23T04:26:56.408Z,9.08
2022-12-23T04:29:44.092Z,8.95
2022-12-23T04:32:33.361Z,8.96
2022-12-23T04:35:21.407Z,8.92
2022-12-23T04:38:12.158Z,8.91
2022-12-23T04:41:00.330Z,8.90
2022-12-23T04:43:52.771Z,9.01
2022-12-23T04:46:40.928Z,8.95
2022-12-23T04:49:30.141Z,8.96
2022-12-23T04:52:17.369Z,8.97
2022-12-23T04:55:05.089Z,9.06
2022-12-23T04:57:52.329Z,9.11
2022-12-23T05:00:40.273Z,9.10
2022-12-23T05:03:27.725Z,9.03
2022-12-23T05:06:16.478Z,9.04
2022-12-23T05:09:04.059Z,9.11
2022-12-23T05:11:51.856Z,9.04
2022-12-23T05:14:39.249Z,9.06
2022-12-23T05:17:27.010Z,8.94
2022-12-23T05:20:14.730Z,9.04
2022-12-23T05:23:04.071Z,9.01
2022-12-23T05:25:53.312Z,8.92
2022-12-23T05:28:40.938Z,9.06
2022-12-23T05:31:28.439Z,8.96
2022-12-23T05:34:16.327Z,9.01
2022-12-23T05:37:03.695Z,9.03
2022-12-23T05:39:54.826Z,9.06
2022-12-23T05:42:42.596Z,9.04
2022-12-23T05:45:30.329Z,8.98
2022-12-23T05:48:18.768Z,8.88
2022-12-23T05:51:06.830Z,8.96
2022-12-23T05:53:54.102Z,8.94
2022-12-23T05:56:42.984Z,8.86
2022-12-23T05:59:31.490Z,8.91
2022-12-23T06:02:22.337Z,8.85
2022-12-23T06:05:11.347Z,8.75
2022-12-23T06:07:58.985Z,8.71
2022-12-23T06:10:46.143Z,8.61
2022-12-23T06:13:35.070Z,8.55
2022-12-23T06:16:22.501Z,8.53
2022-12-23T06:19:11.381Z,8.50
2022-12-23T06:21:59.075Z,8.38
2022-12-23T06:24:46.535Z,8.38
2022-12-23T06:27:33.987Z,8.39
2022-12-23T06:30:22.764Z,8.33
2022-12-23T06:33:12.443Z,8.37
2022-12-23T06:35:59.986Z,8.31
2022-12-23T06:38:47.487Z,8.32
2022-12-23T06:41:35.110Z,8.30
2022-12-23T06:44:22.315Z,8.30
2022-12-23T06:47:11.628Z,8.30
2022-12-23T06:49:59.395Z,8.24
2022-12-23T06:52:46.975Z,8.25
2022-12-23T06:55:34.549Z,8.15
2022-12-23T06:58:22.308Z,8.11
2022-12-23T07:01:10.303Z,8.15
2022-12-23T07:03:59.624Z,8.08
2022-12-23T07:06:46.714Z,8.14
2022-12-23T07:09:35.197Z,8.11
2022-12-23T07:12:22.423Z,8.16
2022-12-23T07:15:10.843Z,8.18
2022-12-23T07:17:58.446Z,8.20
2022-12-23T07:20:47.101Z,8.13
2022-12-23T07:23:34.545Z,8.16
2022-12-23T07:26:22.133Z,8.11
2022-12-23T07:29:09.645Z,8.09
2022-12-23T07:31:57.197Z,8.12
2022-12-23T07:34:44.970Z,8.11
2022-12-23T07:37:33.897Z,8.08
2022-12-23T07:40:21.803Z,8.10
2022-12-23T07:43:09.199Z,8.12
2022-12-23T07:46:00.355Z,8.10
2022-12-23T07:48:48.857Z,8.08
2022-12-23T07:51:36.371Z,8.10
2022-12-23T07:54:25.305Z,8.11
2022-12-23T07:57:13.925Z,8.11
2022-12-23T08:00:01.245Z,8.10
2022-12-23T08:02:49.270Z,8.12
2022-12-23T08:05:37.136Z,8.15
2022-12-23T08:08:24.569Z,8.17
2022-12-23T08:11:14.959Z,8.13
2022-12-23T08:14:02.714Z,8.17
2022-12-23T08:16:50.428Z,8.18
2022-12-23T08:19:38.984Z,8.18
2022-12-23T08:22:26.799Z,8.16
2022-12-23T08:25:14.535Z,8.17
2022-12-23T08:28:03.610Z,8.18
2022-12-23T08:30:51.087Z,8.21
2022-12-23T08:33:40.026Z,8.22
2022-12-23T08:36:30.384Z,8.24
2022-12-23T08:39:19.169Z,8.23
2022-12-23T08:42:07.113Z,8.23
2022-12-23T08:44:56.086Z,8.28
2022-12-23T08:47:43.504Z,8.22
2022-12-23T08:50:31.349Z,8.27
2022-12-23T08:53:18.843Z,8.27
2022-12-23T08:56:08.334Z,8.28
2022-12-23T08:58:56.987Z,8.34
2022-12-23T09:01:46.226Z,8.39
2022-12-23T09:04:34.024Z,8.38
2022-12-23T09:07:21.556Z,8.44
2022-12-23T09:10:10.198Z,8.47
2022-12-23T09:12:58.253Z,8.48
2022-12-23T09:15:46.081Z,8.52
2022-12-23T09:18:35.979Z,8.53
2022-12-23T09:21:25.104Z,8.48
2022-12-23T09:24:12.776Z,8.60
2022-12-23T09:27:00.150Z,8.66
2022-12-23T09:29:47.439Z,8.64
2022-12-23T09:32:35.068Z,8.68
2022-12-23T09:35:23.875Z,8.50
2022-12-23T09:38:12.146Z,8.70
2022-12-23T09:41:04.653Z,8.74
2022-12-23T09:43:59.031Z,8.72
2022-12-23T09:46:52.921Z,8.83
2022-12-23T09:49:48.638Z,8.83
2022-12-23T09:52:44.477Z,8.85
2022-12-23T09:55:41.676Z,8.85
2022-12-23T09:58:33.776Z,8.98
2022-12-23T10:01:33.810Z,8.96
2022-12-23T10:04:41.007Z,8.97
2022-12-23T10:07:36.711Z,9.01
2022-12-23T10:10:34.996Z,8.92
2022-12-23T10:13:29.866Z,8.91
2022-12-23T10:16:20.782Z,8.96
2022-12-23T10:19:16.365Z,8.94
2022-12-23T10:22:06.452Z,8.91
2022-12-23T10:24:57.026Z,8.97
2022-12-23T10:27:46.439Z,8.92
2022-12-23T10:31:10.886Z,9.00
2022-12-23T10:33:52.606Z,8.95
2022-12-23T10:36:50.083Z,9.04
2022-12-23T10:39:44.916Z,9.17
2022-12-23T10:42:38.915Z,9.10
2022-12-23T10:45:45.042Z,9.23
2022-12-23T10:48:48.367Z,9.25
2022-12-23T10:51:46.757Z,9.31
2022-12-23T10:54:37.024Z,9.37
2022-12-23T10:57:26.175Z,9.31
2022-12-23T11:00:19.812Z,9.53
2022-12-23T11:03:18.411Z,9.59
2022-12-23T11:06:09.207Z,9.48
2022-12-23T11:08:58.037Z,9.45
2022-12-23T11:11:57.319Z,9.48
2022-12-23T11:14:53.177Z,9.40
2022-12-23T11:17:40.968Z,9.31
2022-12-23T11:20:31.407Z,9.22
2022-12-23T11:23:26.904Z,9.18
2022-12-23T11:26:20.023Z,9.19
2022-12-23T11:29:11.392Z,9.16
2022-12-23T11:31:59.711Z,9.08
2022-12-23T11:34:49.638Z,9.12
2022-12-23T11:37:43.407Z,9.06
2022-12-23T11:40:33.970Z,9.15
2022-12-23T11:43:24.587Z,9.19
2022-12-23T11:46:17.482Z,9.22
2022-12-23T11:49:16.584Z,9.23
2022-12-23T11:52:13.582Z,9.21
2022-12-23T11:55:04.511Z,9.29
2022-12-23T11:57:53.148Z,9.28
2022-12-23T12:00:44.174Z,9.39
2022-12-23T12:03:36.239Z,9.36
2022-12-23T12:06:25.077Z,9.28
2022-12-23T12:09:15.324Z,9.32
2022-12-23T12:12:09.108Z,9.42
2022-12-23T12:14:59.053Z,9.50
2022-12-23T12:17:52.544Z,9.59
2022-12-23T12:20:44.738Z,9.88
2022-12-23T12:23:41.898Z,9.87
2022-12-23T12:26:32.627Z,9.81
2022-12-23T12:29:29.137Z,9.90
2022-12-23T12:32:22.727Z,9.72
2022-12-23T12:35:16.509Z,9.67
2022-12-23T12:38:13.250Z,9.21
2022-12-23T12:41:08.666Z,9.40
2022-12-23T12:44:05.692Z,9.46
2022-12-23T12:47:00.146Z,9.32
2022-12-23T12:49:53.378Z,9.16
2022-12-23T12:52:43.420Z,9.45
2022-12-23T12:55:33.964Z,9.68
2022-12-23T12:58:23.757Z,9.63
2022-12-23T13:01:30.712Z,9.45
2022-12-23T13:05:02.781Z,9.55
2022-12-23T13:08:06.859Z,9.63
2022-12-23T13:11:01.996Z,9.50
2022-12-23T13:13:57.430Z,9.52
2022-12-23T13:16:53.084Z,9.51
2022-12-23T13:19:49.515Z,9.48
2022-12-23T13:22:38.784Z,9.41
2022-12-23T13:25:33.225Z,9.36
2022-12-23T13:28:32.545Z,9.27
2022-12-23T13:31:34.995Z,8.96
2022-12-23T13:34:34.095Z,9.00
2022-12-23T13:37:32.316Z,9.01
2022-12-23T13:40:38.202Z,8.96
2022-12-23T13:43:27.854Z,8.77
2022-12-23T13:46:28.270Z,8.86
2022-12-23T13:49:26.215Z,8.99
2022-12-23T13:52:17.588Z,8.97
2022-12-23T13:55:15.917Z,8.90
2022-12-23T13:58:12.320Z,8.79
2022-12-23T14:01:21.122Z,8.91
2022-12-23T14:04:37.067Z,8.91
2022-12-23T14:07:25.250Z,8.67
2022-12-23T14:10:21.865Z,8.84
2022-12-23T14:13:16.949Z,8.97
2022-12-23T14:16:24.343Z,9.01
2022-12-23T14:19:42.644Z,9.06
2022-12-23T14:22:41.850Z,8.60
2022-12-23T14:25:51.935Z,8.83
2022-12-23T14:28:55.723Z,8.77
2022-12-23T14:31:46.192Z,8.62
2022-12-23T14:34:36.424Z,8.84
2022-12-23T14:37:35.966Z,8.71
2022-12-23T14:41:00.783Z,8.63
2022-12-23T14:43:56.243Z,8.51
2022-12-23T14:46:59.672Z,8.55
2022-12-23T14:49:49.776Z,8.59
2022-12-23T14:53:01.510Z,8.61
2022-12-23T14:55:51.064Z,8.65
2022-12-23T14:58:56.076Z,8.49
2022-12-23T15:01:50.109Z,8.54
2022-12-23T15:04:49.127Z,8.51
2022-12-23T15:07:39.462Z,8.43
2022-12-23T15:10:29.191Z,8.57
2022-12-23T15:13:19.028Z,8.55
2022-12-23T15:16:08.801Z,8.56
2022-12-23T15:19:00.535Z,8.51
2022-12-23T15:21:54.465Z,8.51
2022-12-23T15:24:48.278Z,8.38
2022-12-23T15:27:38.475Z,8.44
2022-12-23T15:30:27.948Z,8.33
2022-12-23T15:34:00.219Z,8.44
2022-12-23T15:36:32.447Z,8.53
2022-12-23T15:39:22.425Z,8.57
2022-12-23T15:42:23.049Z,8.56
2022-12-23T15:45:33.790Z,8.49
2022-12-23T15:48:26.337Z,8.46
2022-12-23T15:51:30.551Z,8.59
2022-12-23T15:54:30.720Z,8.41
2022-12-23T15:57:22.121Z,8.48
2022-12-23T16:00:20.561Z,8.44
2022-12-23T16:03:20.588Z,8.33
2022-12-23T16:06:11.617Z,8.57
2022-12-23T16:09:02.724Z,8.58
2022-12-23T16:11:57.798Z,8.47
2022-12-23T16:14:54.056Z,8.59
2022-12-23T16:17:41.686Z,8.69
2022-12-23T16:20:29.520Z,8.61
2022-12-23T16:23:18.714Z,8.51
2022-12-23T16:26:06.612Z,8.46
2022-12-23T16:28:59.664Z,8.40
2022-12-23T16:31:55.837Z,8.51
2022-12-23T16:34:51.505Z,8.44
2022-12-23T16:37:38.957Z,8.44
2022-12-23T16:40:26.671Z,8.39
2022-12-23T16:43:14.592Z,8.41
2022-12-23T16:46:04.364Z,8.34
2022-12-23T16:48:55.509Z,8.38
2022-12-23T16:51:43.604Z,8.44
2022-12-23T16:54:31.239Z,8.44
2022-12-23T16:57:18.697Z,8.38
2022-12-23T17:00:07.970Z,8.42
2022-12-23T17:02:57.297Z,8.33
2022-12-23T17:05:45.975Z,8.44
2022-12-23T17:08:33.583Z,8.46
2022-12-23T17:11:26.255Z,8.46
2022-12-23T17:14:17.315Z,8.41
2022-12-23T17:17:14.371Z,8.38
2022-12-23T17:20:03.543Z,8.47
2022-12-23T17:22:54.302Z,8.41
2022-12-23T17:25:41.739Z,8.41
2022-12-23T17:28:32.432Z,8.38
2022-12-23T17:31:26.509Z,8.43
2022-12-23T17:34:17.414Z,8.48
2022-12-23T17:37:14.126Z,8.45
2022-12-23T17:40:01.808Z,8.43
2022-12-23T17:42:49.590Z,8.42
2022-12-23T17:45:37.550Z,8.38
2022-12-23T17:48:31.114Z,8.30
2022-12-23T17:51:20.839Z,8.15
2022-12-23T17:54:21.841Z,8.02
2022-12-23T17:57:19.166Z,8.14
2022-12-23T18:00:08.634Z,8.09
2022-12-23T18:02:59.284Z,8.35
2022-12-23T18:05:46.795Z,8.21
2022-12-23T18:08:34.368Z,7.98
2022-12-23T18:11:28.840Z,7.91
2022-12-23T18:14:19.464Z,7.97
2022-12-23T18:17:07.333Z,8.29
2022-12-23T18:19:55.046Z,8.59
2022-12-23T18:22:42.803Z,8.38
2022-12-23T18:25:30.625Z,8.17
2022-12-23T18:28:19.511Z,7.97
2022-12-23T18:31:07.025Z,7.91
2022-12-23T18:33:54.642Z,7.70
2022-12-23T18:36:42.483Z,7.79
2022-12-23T18:39:30.097Z,7.76
2022-12-23T18:42:19.135Z,7.84
2022-12-23T18:45:26.101Z,7.80
2022-12-23T18:48:13.664Z,7.88
2022-12-23T18:51:01.502Z,7.89
2022-12-23T18:53:49.663Z,7.85
2022-12-23T18:56:37.322Z,7.78
2022-12-23T18:59:29.828Z,7.80
2022-12-23T19:02:19.378Z,7.89
2022-12-23T19:05:08.193Z,7.94
2022-12-23T19:07:57.437Z,7.87
2022-12-23T19:10:48.174Z,7.85
2022-12-23T19:13:35.913Z,7.95
2022-12-23T19:16:23.690Z,7.82
2022-12-23T19:19:13.046Z,7.92
2022-12-23T19:22:02.046Z,8.03
2022-12-23T19:25:04.612Z,8.00
2022-12-23T19:27:53.628Z,7.95
2022-12-23T19:30:42.807Z,7.98
2022-12-23T19:33:30.407Z,8.10
2022-12-23T19:36:22.826Z,7.97
2022-12-23T19:39:16.686Z,7.85
2022-12-23T19:42:05.906Z,7.81
2022-12-23T19:44:53.777Z,7.74
2022-12-23T19:47:41.695Z,7.78
2022-12-23T19:50:30.786Z,7.77
2022-12-23T19:53:19.767Z,7.92
2022-12-23T19:56:10.191Z,7.90
2022-12-23T19:58:57.816Z,7.83
2022-12-23T20:01:47.292Z,7.92
2022-12-23T20:04:36.187Z,8.03
2022-12-23T20:07:23.836Z,7.87
2022-12-23T20:10:13.517Z,7.79
2022-12-23T20:13:01.263Z,7.65
2022-12-23T20:15:49.044Z,7.70
2022-12-23T20:18:37.124Z,7.75
2022-12-23T20:21:25.449Z,7.49
2022-12-23T20:24:13.241Z,7.57
2022-12-23T20:27:05.096Z,7.62
2022-12-23T20:29:55.486Z,7.59
2022-12-23T20:32:43.408Z,7.61
2022-12-23T20:35:32.296Z,7.75
2022-12-23T20:38:20.126Z,7.82
2022-12-23T20:41:08.167Z,7.85
2022-12-23T20:44:31.741Z,7.69
2022-12-23T20:47:04.781Z,7.62
2022-12-23T20:49:55.843Z,7.57
2022-12-23T20:52:43.539Z,7.60
2022-12-23T20:55:33.179Z,7.58
2022-12-23T20:58:41.136Z,7.57
2022-12-23T21:01:32.378Z,7.62
2022-12-23T21:04:20.720Z,7.59
2022-12-23T21:07:08.289Z,7.61
2022-12-23T21:09:55.977Z,7.70
2022-12-23T21:12:43.380Z,7.69
2022-12-23T21:15:32.946Z,7.70
2022-12-23T21:18:22.003Z,7.72
2022-12-23T21:21:09.579Z,7.84
2022-12-23T21:24:00.487Z,8.03
2022-12-23T21:26:55.570Z,8.03
2022-12-23T21:29:44.411Z,8.28
2022-12-23T21:32:32.912Z,8.33
2022-12-23T21:35:22.126Z,8.34
2022-12-23T21:38:09.572Z,8.29
2022-12-23T21:41:01.111Z,8.30
2022-12-23T21:43:48.598Z,8.33
2022-12-23T21:46:36.287Z,8.34
2022-12-23T21:49:24.251Z,8.40
2022-12-23T21:52:13.235Z,8.46
2022-12-23T21:55:01.115Z,8.62
2022-12-23T21:57:48.873Z,8.65
2022-12-23T22:00:36.370Z,8.69
2022-12-23T22:03:24.075Z,8.73
2022-12-23T22:06:14.823Z,8.74
2022-12-23T22:09:04.413Z,8.75
2022-12-23T22:11:52.034Z,8.52
2022-12-23T22:14:39.889Z,8.44
2022-12-23T22:17:27.278Z,8.43
2022-12-23T22:20:14.723Z,8.39
2022-12-23T22:23:03.688Z,8.55
2022-12-23T22:26:25.631Z,8.77
2022-12-23T22:29:14.167Z,8.82
2022-12-23T22:32:01.465Z,8.94
2022-12-23T22:34:48.933Z,8.98
2022-12-23T22:37:36.684Z,9.06
2022-12-23T22:40:24.624Z,9.18
2022-12-23T22:43:13.713Z,9.17
2022-12-23T22:46:03.048Z,9.19
2022-12-23T22:48:50.811Z,9.16
2022-12-23T22:51:38.275Z,9.19
2022-12-23T22:54:25.958Z,9.22
2022-12-23T22:57:14.389Z,9.23
2022-12-23T23:00:09.641Z,9.28
2022-12-23T23:02:59.336Z,9.34
2022-12-23T23:05:56.146Z,9.32
2022-12-23T23:08:44.568Z,9.32
2022-12-23T23:11:31.957Z,9.34
2022-12-23T23:14:20.092Z,9.31
2022-12-23T23:17:09.496Z,9.41
2022-12-23T23:19:57.363Z,9.37
2022-12-23T23:22:44.783Z,9.40
2022-12-23T23:25:32.517Z,9.57
2022-12-23T23:28:20.412Z,9.62
2022-12-23T23:34:18.292Z,9.71
2022-12-23T23:37:06.147Z,9.64
2022-12-23T23:39:53.780Z,9.69
2022-12-23T23:42:41.174Z,9.74
2022-12-23T23:45:30.598Z,9.80
2022-12-23T23:48:19.414Z,9.73
2022-12-23T23:51:08.905Z,9.92
2022-12-23T23:53:58.758Z,9.77
2022-12-23T23:56:46.596Z,9.76
2022-12-23T23:59:34.514Z,9.79
